sensor_id;sensor_type;location;lat;lon;timestamp;pressure;altitude;pressure_sealevel;temperature
68012;BMP180;54794;48.348;7.878;2024-03-06T00:01:10;99175.00;;;8.80
68012;BMP180;54794;48.348;7.878;2024-03-06T00:03:38;99179.00;;;8.80
68012;BMP180;54794;48.348;7.878;2024-03-06T00:06:05;99182.00;;;8.80
68012;BMP180;54794;48.348;7.878;2024-03-06T00:08:32;99184.00;;;8.70
68012;BMP180;54794;48.348;7.878;2024-03-06T00:10:59;99189.00;;;8.80
68012;BMP180;54794;48.348;7.878;2024-03-06T00:13:26;99187.00;;;8.70
68012;BMP180;54794;48.348;7.878;2024-03-06T00:15:54;99184.00;;;8.70
68012;BMP180;54794;48.348;7.878;2024-03-06T00:18:21;99205.00;;;8.90
68012;BMP180;54794;48.348;7.878;2024-03-06T00:20:47;99196.00;;;8.70
68012;BMP180;54794;48.348;7.878;2024-03-06T00:23:15;99208.00;;;8.60
68012;BMP180;54794;48.348;7.878;2024-03-06T00:25:42;99203.00;;;8.50
68012;BMP180;54794;48.348;7.878;2024-03-06T00:28:09;99206.00;;;8.50
68012;BMP180;54794;48.348;7.878;2024-03-06T00:30:36;99205.00;;;8.40
68012;BMP180;54794;48.348;7.878;2024-03-06T00:33:03;99218.00;;;8.50
68012;BMP180;54794;48.348;7.878;2024-03-06T00:35:30;99212.00;;;8.50
68012;BMP180;54794;48.348;7.878;2024-03-06T00:37:57;99206.00;;;8.60
68012;BMP180;54794;48.348;7.878;2024-03-06T00:40:29;99210.00;;;8.80
68012;BMP180;54794;48.348;7.878;2024-03-06T00:42:59;99197.00;;;8.80
68012;BMP180;54794;48.348;7.878;2024-03-06T00:45:26;99207.00;;;8.90
68012;BMP180;54794;48.348;7.878;2024-03-06T00:47:53;99199.00;;;8.90
68012;BMP180;54794;48.348;7.878;2024-03-06T00:50:20;99200.00;;;8.90
68012;BMP180;54794;48.348;7.878;2024-03-06T00:52:49;99196.00;;;8.80
68012;BMP180;54794;48.348;7.878;2024-03-06T00:55:16;99199.00;;;8.80
68012;BMP180;54794;48.348;7.878;2024-03-06T00:57:43;99208.00;;;8.80
68012;BMP180;54794;48.348;7.878;2024-03-06T01:00:11;99222.00;;;8.00
68012;BMP180;54794;48.348;7.878;2024-03-06T01:02:38;99219.00;;;8.20
68012;BMP180;54794;48.348;7.878;2024-03-06T01:05:06;99214.00;;;8.50
68012;BMP180;54794;48.348;7.878;2024-03-06T01:07:33;99215.00;;;8.80
68012;BMP180;54794;48.348;7.878;2024-03-06T01:10:01;99215.00;;;8.90
68012;BMP180;54794;48.348;7.878;2024-03-06T01:12:29;99215.00;;;8.90
68012;BMP180;54794;48.348;7.878;2024-03-06T01:14:56;99221.00;;;9.00
68012;BMP180;54794;48.348;7.878;2024-03-06T01:17:23;99222.00;;;9.00
68012;BMP180;54794;48.348;7.878;2024-03-06T01:19:51;99227.00;;;9.00
68012;BMP180;54794;48.348;7.878;2024-03-06T01:22:18;99216.00;;;8.90
68012;BMP180;54794;48.348;7.878;2024-03-06T01:24:45;99223.00;;;8.90
68012;BMP180;54794;48.348;7.878;2024-03-06T01:27:16;99229.00;;;8.90
68012;BMP180;54794;48.348;7.878;2024-03-06T01:29:43;99226.00;;;9.00
68012;BMP180;54794;48.348;7.878;2024-03-06T01:32:10;99223.00;;;8.70
68012;BMP180;54794;48.348;7.878;2024-03-06T01:34:37;99236.00;;;8.80
68012;BMP180;54794;48.348;7.878;2024-03-06T01:37:05;99234.00;;;8.80
68012;BMP180;54794;48.348;7.878;2024-03-06T01:39:32;99233.00;;;8.70
68012;BMP180;54794;48.348;7.878;2024-03-06T01:42:00;99230.00;;;8.60
68012;BMP180;54794;48.348;7.878;2024-03-06T01:44:27;99234.00;;;8.60
68012;BMP180;54794;48.348;7.878;2024-03-06T01:46:54;99233.00;;;8.50
68012;BMP180;54794;48.348;7.878;2024-03-06T01:49:22;99230.00;;;8.70
68012;BMP180;54794;48.348;7.878;2024-03-06T01:52:03;99217.00;;;8.60
68012;BMP180;54794;48.348;7.878;2024-03-06T01:54:31;99220.00;;;8.70
68012;BMP180;54794;48.348;7.878;2024-03-06T01:57:00;99229.00;;;8.60
68012;BMP180;54794;48.348;7.878;2024-03-06T01:59:29;99229.00;;;8.50
68012;BMP180;54794;48.348;7.878;2024-03-06T02:02:03;99220.00;;;8.70
68012;BMP180;54794;48.348;7.878;2024-03-06T02:04:32;99225.00;;;8.70
68012;BMP180;54794;48.348;7.878;2024-03-06T02:06:59;99227.00;;;8.50
68012;BMP180;54794;48.348;7.878;2024-03-06T02:09:27;99228.00;;;8.50
68012;BMP180;54794;48.348;7.878;2024-03-06T02:11:54;99234.00;;;8.60
68012;BMP180;54794;48.348;7.878;2024-03-06T02:14:21;99233.00;;;8.80
68012;BMP180;54794;48.348;7.878;2024-03-06T02:16:48;99230.00;;;8.50
68012;BMP180;54794;48.348;7.878;2024-03-06T02:19:16;99240.00;;;8.70
68012;BMP180;54794;48.348;7.878;2024-03-06T02:21:44;99231.00;;;8.60
68012;BMP180;54794;48.348;7.878;2024-03-06T02:24:11;99229.00;;;8.60
68012;BMP180;54794;48.348;7.878;2024-03-06T02:26:39;99235.00;;;8.70
68012;BMP180;54794;48.348;7.878;2024-03-06T02:29:07;99233.00;;;8.50
68012;BMP180;54794;48.348;7.878;2024-03-06T02:31:35;99227.00;;;8.60
68012;BMP180;54794;48.348;7.878;2024-03-06T02:34:02;99233.00;;;8.50
68012;BMP180;54794;48.348;7.878;2024-03-06T02:36:33;99229.00;;;8.40
68012;BMP180;54794;48.348;7.878;2024-03-06T02:39:00;99230.00;;;8.50
68012;BMP180;54794;48.348;7.878;2024-03-06T02:41:27;99235.00;;;8.70
68012;BMP180;54794;48.348;7.878;2024-03-06T02:43:54;99225.00;;;8.70
68012;BMP180;54794;48.348;7.878;2024-03-06T02:46:21;99236.00;;;8.50
68012;BMP180;54794;48.348;7.878;2024-03-06T02:48:48;99236.00;;;8.40
68012;BMP180;54794;48.348;7.878;2024-03-06T02:51:19;99244.00;;;8.50
68012;BMP180;54794;48.348;7.878;2024-03-06T02:53:46;99241.00;;;8.40
68012;BMP180;54794;48.348;7.878;2024-03-06T02:56:17;99246.00;;;8.50
68012;BMP180;54794;48.348;7.878;2024-03-06T02:58:45;99231.00;;;8.50
68012;BMP180;54794;48.348;7.878;2024-03-06T03:01:14;99235.00;;;8.70
68012;BMP180;54794;48.348;7.878;2024-03-06T03:03:41;99223.00;;;8.70
68012;BMP180;54794;48.348;7.878;2024-03-06T03:06:09;99228.00;;;8.70
68012;BMP180;54794;48.348;7.878;2024-03-06T03:08:39;99241.00;;;8.50
68012;BMP180;54794;48.348;7.878;2024-03-06T03:11:06;99225.00;;;8.60
68012;BMP180;54794;48.348;7.878;2024-03-06T03:13:34;99223.00;;;8.30
68012;BMP180;54794;48.348;7.878;2024-03-06T03:16:03;99225.00;;;8.70
68012;BMP180;54794;48.348;7.878;2024-03-06T03:18:30;99217.00;;;8.50
68012;BMP180;54794;48.348;7.878;2024-03-06T03:20:57;99227.00;;;8.30
68012;BMP180;54794;48.348;7.878;2024-03-06T03:23:24;99232.00;;;8.50
68012;BMP180;54794;48.348;7.878;2024-03-06T03:25:51;99237.00;;;8.50
68012;BMP180;54794;48.348;7.878;2024-03-06T03:28:20;99232.00;;;8.60
68012;BMP180;54794;48.348;7.878;2024-03-06T03:30:47;99243.00;;;8.60
68012;BMP180;54794;48.348;7.878;2024-03-06T03:33:14;99251.00;;;8.50
68012;BMP180;54794;48.348;7.878;2024-03-06T03:35:42;99254.00;;;8.60
68012;BMP180;54794;48.348;7.878;2024-03-06T03:38:08;99252.00;;;8.60
68012;BMP180;54794;48.348;7.878;2024-03-06T03:40:35;99243.00;;;8.60
68012;BMP180;54794;48.348;7.878;2024-03-06T03:43:03;99256.00;;;8.50
68012;BMP180;54794;48.348;7.878;2024-03-06T03:45:33;99253.00;;;8.60
68012;BMP180;54794;48.348;7.878;2024-03-06T03:48:04;99257.00;;;8.70
68012;BMP180;54794;48.348;7.878;2024-03-06T03:50:32;99264.00;;;8.80
68012;BMP180;54794;48.348;7.878;2024-03-06T03:52:59;99265.00;;;8.70
68012;BMP180;54794;48.348;7.878;2024-03-06T03:55:28;99255.00;;;8.60
68012;BMP180;54794;48.348;7.878;2024-03-06T03:57:55;99257.00;;;8.60
68012;BMP180;54794;48.348;7.878;2024-03-06T04:00:23;99250.00;;;8.50
68012;BMP180;54794;48.348;7.878;2024-03-06T04:02:51;99262.00;;;8.40
68012;BMP180;54794;48.348;7.878;2024-03-06T04:05:18;99263.00;;;8.40
68012;BMP180;54794;48.348;7.878;2024-03-06T04:07:48;99259.00;;;8.30
68012;BMP180;54794;48.348;7.878;2024-03-06T04:10:15;99269.00;;;8.20
68012;BMP180;54794;48.348;7.878;2024-03-06T04:12:42;99266.00;;;8.40
68012;BMP180;54794;48.348;7.878;2024-03-06T04:15:09;99271.00;;;8.50
68012;BMP180;54794;48.348;7.878;2024-03-06T04:17:37;99271.00;;;8.30
68012;BMP180;54794;48.348;7.878;2024-03-06T04:20:04;99280.00;;;8.60
68012;BMP180;54794;48.348;7.878;2024-03-06T04:22:33;99274.00;;;8.60
68012;BMP180;54794;48.348;7.878;2024-03-06T04:25:01;99280.00;;;8.50
68012;BMP180;54794;48.348;7.878;2024-03-06T04:27:33;99278.00;;;8.40
68012;BMP180;54794;48.348;7.878;2024-03-06T04:30:01;99292.00;;;8.30
68012;BMP180;54794;48.348;7.878;2024-03-06T04:32:28;99293.00;;;8.40
68012;BMP180;54794;48.348;7.878;2024-03-06T04:34:58;99298.00;;;8.60
68012;BMP180;54794;48.348;7.878;2024-03-06T04:37:26;99310.00;;;8.60
68012;BMP180;54794;48.348;7.878;2024-03-06T04:39:54;99306.00;;;8.60
68012;BMP180;54794;48.348;7.878;2024-03-06T04:42:21;99308.00;;;8.50
68012;BMP180;54794;48.348;7.878;2024-03-06T04:44:48;99300.00;;;8.50
68012;BMP180;54794;48.348;7.878;2024-03-06T04:47:15;99300.00;;;8.40
68012;BMP180;54794;48.348;7.878;2024-03-06T04:49:43;99298.00;;;8.50
68012;BMP180;54794;48.348;7.878;2024-03-06T04:52:10;99298.00;;;8.30
68012;BMP180;54794;48.348;7.878;2024-03-06T04:54:37;99313.00;;;8.40
68012;BMP180;54794;48.348;7.878;2024-03-06T04:57:05;99314.00;;;8.40
68012;BMP180;54794;48.348;7.878;2024-03-06T04:59:32;99323.00;;;8.60
68012;BMP180;54794;48.348;7.878;2024-03-06T05:01:59;99323.00;;;8.50
68012;BMP180;54794;48.348;7.878;2024-03-06T05:04:27;99322.00;;;8.50
68012;BMP180;54794;48.348;7.878;2024-03-06T05:07:14;99319.00;;;8.50
68012;BMP180;54794;48.348;7.878;2024-03-06T05:10:02;99335.00;;;8.50
68012;BMP180;54794;48.348;7.878;2024-03-06T05:12:46;99327.00;;;8.60
68012;BMP180;54794;48.348;7.878;2024-03-06T05:15:34;99326.00;;;8.50
68012;BMP180;54794;48.348;7.878;2024-03-06T05:18:18;99335.00;;;8.60
68012;BMP180;54794;48.348;7.878;2024-03-06T05:21:04;99343.00;;;8.50
68012;BMP180;54794;48.348;7.878;2024-03-06T05:23:48;99348.00;;;8.50
68012;BMP180;54794;48.348;7.878;2024-03-06T05:26:33;99347.00;;;8.50
68012;BMP180;54794;48.348;7.878;2024-03-06T05:29:18;99344.00;;;8.60
68012;BMP180;54794;48.348;7.878;2024-03-06T05:32:03;99346.00;;;8.50
68012;BMP180;54794;48.348;7.878;2024-03-06T05:34:47;99349.00;;;8.50
68012;BMP180;54794;48.348;7.878;2024-03-06T05:37:32;99347.00;;;8.60
68012;BMP180;54794;48.348;7.878;2024-03-06T05:40:17;99348.00;;;8.60
68012;BMP180;54794;48.348;7.878;2024-03-06T05:43:01;99356.00;;;8.60
68012;BMP180;54794;48.348;7.878;2024-03-06T05:45:48;99363.00;;;8.50
68012;BMP180;54794;48.348;7.878;2024-03-06T05:48:33;99357.00;;;8.40
68012;BMP180;54794;48.348;7.878;2024-03-06T05:51:18;99366.00;;;8.40
68012;BMP180;54794;48.348;7.878;2024-03-06T05:54:05;99367.00;;;8.30
68012;BMP180;54794;48.348;7.878;2024-03-06T05:56:52;99368.00;;;8.40
68012;BMP180;54794;48.348;7.878;2024-03-06T05:59:38;99364.00;;;8.50
68012;BMP180;54794;48.348;7.878;2024-03-06T06:02:06;99369.00;;;8.70
68012;BMP180;54794;48.348;7.878;2024-03-06T06:04:33;99375.00;;;8.50
68012;BMP180;54794;48.348;7.878;2024-03-06T06:07:13;99386.00;;;8.60
68012;BMP180;54794;48.348;7.878;2024-03-06T06:09:40;99383.00;;;8.70
68012;BMP180;54794;48.348;7.878;2024-03-06T06:12:08;99385.00;;;8.50
68012;BMP180;54794;48.348;7.878;2024-03-06T06:14:35;99381.00;;;8.50
68012;BMP180;54794;48.348;7.878;2024-03-06T06:17:02;99383.00;;;8.50
68012;BMP180;54794;48.348;7.878;2024-03-06T06:19:30;99382.00;;;8.70
68012;BMP180;54794;48.348;7.878;2024-03-06T06:21:57;99393.00;;;8.70
68012;BMP180;54794;48.348;7.878;2024-03-06T06:24:24;99397.00;;;8.70
68012;BMP180;54794;48.348;7.878;2024-03-06T06:26:51;99403.00;;;8.80
68012;BMP180;54794;48.348;7.878;2024-03-06T06:29:18;99410.00;;;8.80
68012;BMP180;54794;48.348;7.878;2024-03-06T06:31:46;99409.00;;;8.80
68012;BMP180;54794;48.348;7.878;2024-03-06T06:34:13;99411.00;;;8.70
68012;BMP180;54794;48.348;7.878;2024-03-06T06:36:45;99412.00;;;8.60
68012;BMP180;54794;48.348;7.878;2024-03-06T06:39:13;99420.00;;;8.60
68012;BMP180;54794;48.348;7.878;2024-03-06T06:41:40;99403.00;;;8.60
68012;BMP180;54794;48.348;7.878;2024-03-06T06:44:07;99426.00;;;8.70
68012;BMP180;54794;48.348;7.878;2024-03-06T06:46:34;99421.00;;;8.70
68012;BMP180;54794;48.348;7.878;2024-03-06T06:49:01;99416.00;;;8.60
68012;BMP180;54794;48.348;7.878;2024-03-06T06:51:28;99423.00;;;8.70
68012;BMP180;54794;48.348;7.878;2024-03-06T06:53:55;99426.00;;;8.70
68012;BMP180;54794;48.348;7.878;2024-03-06T06:56:23;99432.00;;;8.70
68012;BMP180;54794;48.348;7.878;2024-03-06T06:58:50;99428.00;;;8.70
68012;BMP180;54794;48.348;7.878;2024-03-06T07:01:17;99433.00;;;8.80
68012;BMP180;54794;48.348;7.878;2024-03-06T07:03:44;99434.00;;;8.60
68012;BMP180;54794;48.348;7.878;2024-03-06T07:06:11;99441.00;;;8.60
68012;BMP180;54794;48.348;7.878;2024-03-06T07:08:38;99437.00;;;8.60
68012;BMP180;54794;48.348;7.878;2024-03-06T07:11:05;99437.00;;;8.80
68012;BMP180;54794;48.348;7.878;2024-03-06T07:13:32;99438.00;;;8.60
68012;BMP180;54794;48.348;7.878;2024-03-06T07:15:59;99449.00;;;8.70
68012;BMP180;54794;48.348;7.878;2024-03-06T07:18:31;99461.00;;;8.40
68012;BMP180;54794;48.348;7.878;2024-03-06T07:21:40;99465.00;;;8.10
68012;BMP180;54794;48.348;7.878;2024-03-06T07:33:36;99467.00;;;8.20
68012;BMP180;54794;48.348;7.878;2024-03-06T07:36:09;99466.00;;;8.60
68012;BMP180;54794;48.348;7.878;2024-03-06T07:38:36;99468.00;;;8.70
68012;BMP180;54794;48.348;7.878;2024-03-06T07:41:06;99468.00;;;8.80
68012;BMP180;54794;48.348;7.878;2024-03-06T07:43:33;99468.00;;;8.60
68012;BMP180;54794;48.348;7.878;2024-03-06T07:46:00;99474.00;;;8.60
68012;BMP180;54794;48.348;7.878;2024-03-06T07:52:07;99482.00;;;8.70
68012;BMP180;54794;48.348;7.878;2024-03-06T07:55:01;99491.00;;;8.50
68012;BMP180;54794;48.348;7.878;2024-03-06T08:01:05;99500.00;;;8.70
68012;BMP180;54794;48.348;7.878;2024-03-06T08:03:47;99495.00;;;9.00
68012;BMP180;54794;48.348;7.878;2024-03-06T08:06:25;99485.00;;;8.70
68012;BMP180;54794;48.348;7.878;2024-03-06T08:11:36;99498.00;;;8.70
68012;BMP180;54794;48.348;7.878;2024-03-06T08:14:24;99494.00;;;8.70
68012;BMP180;54794;48.348;7.878;2024-03-06T08:16:55;99502.00;;;8.60
68012;BMP180;54794;48.348;7.878;2024-03-06T08:19:22;99503.00;;;8.60
68012;BMP180;54794;48.348;7.878;2024-03-06T08:21:55;99507.00;;;8.60
68012;BMP180;54794;48.348;7.878;2024-03-06T08:24:22;99501.00;;;8.70
68012;BMP180;54794;48.348;7.878;2024-03-06T08:26:49;99512.00;;;8.80
68012;BMP180;54794;48.348;7.878;2024-03-06T08:29:20;99514.00;;;8.80
68012;BMP180;54794;48.348;7.878;2024-03-06T08:31:48;99507.00;;;8.90
68012;BMP180;54794;48.348;7.878;2024-03-06T08:34:17;99517.00;;;8.90
68012;BMP180;54794;48.348;7.878;2024-03-06T08:36:45;99511.00;;;8.80
68012;BMP180;54794;48.348;7.878;2024-03-06T08:39:12;99501.00;;;9.00
68012;BMP180;54794;48.348;7.878;2024-03-06T08:41:42;99499.00;;;9.00
68012;BMP180;54794;48.348;7.878;2024-03-06T08:44:09;99511.00;;;9.00
68012;BMP180;54794;48.348;7.878;2024-03-06T08:46:41;99511.00;;;9.00
68012;BMP180;54794;48.348;7.878;2024-03-06T08:49:08;99507.00;;;9.10
68012;BMP180;54794;48.348;7.878;2024-03-06T08:51:45;99512.00;;;9.10
68012;BMP180;54794;48.348;7.878;2024-03-06T08:54:21;99521.00;;;9.10
68012;BMP180;54794;48.348;7.878;2024-03-06T08:56:52;99515.00;;;9.20
68012;BMP180;54794;48.348;7.878;2024-03-06T08:59:25;99528.00;;;8.90
68012;BMP180;54794;48.348;7.878;2024-03-06T09:01:54;99510.00;;;9.20
68012;BMP180;54794;48.348;7.878;2024-03-06T09:04:22;99529.00;;;9.30
68012;BMP180;54794;48.348;7.878;2024-03-06T09:06:49;99530.00;;;8.90
68012;BMP180;54794;48.348;7.878;2024-03-06T09:09:16;99527.00;;;8.90
68012;BMP180;54794;48.348;7.878;2024-03-06T09:11:44;99535.00;;;8.80
68012;BMP180;54794;48.348;7.878;2024-03-06T09:14:11;99532.00;;;9.00
68012;BMP180;54794;48.348;7.878;2024-03-06T09:16:38;99534.00;;;9.30
68012;BMP180;54794;48.348;7.878;2024-03-06T09:19:05;99537.00;;;9.40
68012;BMP180;54794;48.348;7.878;2024-03-06T09:21:31;99544.00;;;9.30
68012;BMP180;54794;48.348;7.878;2024-03-06T09:23:58;99534.00;;;9.00
68012;BMP180;54794;48.348;7.878;2024-03-06T09:26:25;99542.00;;;9.10
68012;BMP180;54794;48.348;7.878;2024-03-06T09:28:52;99532.00;;;9.20
68012;BMP180;54794;48.348;7.878;2024-03-06T09:31:19;99532.00;;;9.20
68012;BMP180;54794;48.348;7.878;2024-03-06T09:33:46;99547.00;;;9.20
68012;BMP180;54794;48.348;7.878;2024-03-06T09:36:13;99550.00;;;9.00
68012;BMP180;54794;48.348;7.878;2024-03-06T09:38:40;99547.00;;;9.40
68012;BMP180;54794;48.348;7.878;2024-03-06T09:41:08;99545.00;;;9.30
68012;BMP180;54794;48.348;7.878;2024-03-06T09:43:35;99560.00;;;9.30
68012;BMP180;54794;48.348;7.878;2024-03-06T09:46:02;99549.00;;;9.30
68012;BMP180;54794;48.348;7.878;2024-03-06T09:48:30;99551.00;;;9.40
68012;BMP180;54794;48.348;7.878;2024-03-06T09:51:02;99546.00;;;9.50
68012;BMP180;54794;48.348;7.878;2024-03-06T09:53:29;99545.00;;;9.70
68012;BMP180;54794;48.348;7.878;2024-03-06T09:55:57;99541.00;;;9.80
68012;BMP180;54794;48.348;7.878;2024-03-06T09:58:24;99549.00;;;9.70
68012;BMP180;54794;48.348;7.878;2024-03-06T10:00:53;99540.00;;;9.80
68012;BMP180;54794;48.348;7.878;2024-03-06T10:03:20;99543.00;;;9.70
68012;BMP180;54794;48.348;7.878;2024-03-06T10:05:47;99542.00;;;9.70
68012;BMP180;54794;48.348;7.878;2024-03-06T10:08:13;99544.00;;;9.90
68012;BMP180;54794;48.348;7.878;2024-03-06T10:10:44;99542.00;;;9.80
68012;BMP180;54794;48.348;7.878;2024-03-06T10:13:12;99542.00;;;10.10
68012;BMP180;54794;48.348;7.878;2024-03-06T10:15:39;99539.00;;;10.30
68012;BMP180;54794;48.348;7.878;2024-03-06T10:18:14;99548.00;;;10.10
68012;BMP180;54794;48.348;7.878;2024-03-06T10:20:42;99554.00;;;10.00
68012;BMP180;54794;48.348;7.878;2024-03-06T10:23:10;99546.00;;;10.30
68012;BMP180;54794;48.348;7.878;2024-03-06T10:25:37;99547.00;;;10.20
68012;BMP180;54794;48.348;7.878;2024-03-06T10:28:09;99555.00;;;10.00
68012;BMP180;54794;48.348;7.878;2024-03-06T10:30:39;99552.00;;;10.20
68012;BMP180;54794;48.348;7.878;2024-03-06T10:33:13;99557.00;;;10.00
68012;BMP180;54794;48.348;7.878;2024-03-06T10:35:43;99551.00;;;10.50
68012;BMP180;54794;48.348;7.878;2024-03-06T10:38:11;99536.00;;;10.30
68012;BMP180;54794;48.348;7.878;2024-03-06T10:40:41;99541.00;;;10.50
68012;BMP180;54794;48.348;7.878;2024-03-06T10:43:10;99543.00;;;10.70
68012;BMP180;54794;48.348;7.878;2024-03-06T10:46:18;99546.00;;;9.80
68012;BMP180;54794;48.348;7.878;2024-03-06T10:48:48;99542.00;;;10.50
68012;BMP180;54794;48.348;7.878;2024-03-06T10:51:17;99550.00;;;10.50
68012;BMP180;54794;48.348;7.878;2024-03-06T10:53:45;99546.00;;;10.50
68012;BMP180;54794;48.348;7.878;2024-03-06T10:56:13;99550.00;;;10.40
68012;BMP180;54794;48.348;7.878;2024-03-06T10:58:42;99552.00;;;10.30
68012;BMP180;54794;48.348;7.878;2024-03-06T11:01:09;99551.00;;;10.00
68012;BMP180;54794;48.348;7.878;2024-03-06T11:03:37;99549.00;;;10.40
68012;BMP180;54794;48.348;7.878;2024-03-06T11:06:06;99555.00;;;10.50
68012;BMP180;54794;48.348;7.878;2024-03-06T11:08:34;99565.00;;;10.10
68012;BMP180;54794;48.348;7.878;2024-03-06T11:11:39;99554.00;;;10.30
68012;BMP180;54794;48.348;7.878;2024-03-06T11:17:38;99557.00;;;9.90
68012;BMP180;54794;48.348;7.878;2024-03-06T11:28:37;99552.00;;;10.50
68012;BMP180;54794;48.348;7.878;2024-03-06T11:31:10;99549.00;;;10.60
68012;BMP180;54794;48.348;7.878;2024-03-06T11:33:47;99549.00;;;10.50
68012;BMP180;54794;48.348;7.878;2024-03-06T11:36:28;99551.00;;;10.50
68012;BMP180;54794;48.348;7.878;2024-03-06T11:39:03;99553.00;;;10.70
68012;BMP180;54794;48.348;7.878;2024-03-06T11:41:46;99549.00;;;10.40
68012;BMP180;54794;48.348;7.878;2024-03-06T11:44:21;99560.00;;;10.80
68012;BMP180;54794;48.348;7.878;2024-03-06T11:47:01;99551.00;;;11.20
68012;BMP180;54794;48.348;7.878;2024-03-06T11:49:30;99552.00;;;10.70
68012;BMP180;54794;48.348;7.878;2024-03-06T11:52:05;99543.00;;;11.00
68012;BMP180;54794;48.348;7.878;2024-03-06T11:54:32;99545.00;;;11.40
68012;BMP180;54794;48.348;7.878;2024-03-06T11:57:02;99548.00;;;11.30
68012;BMP180;54794;48.348;7.878;2024-03-06T11:59:33;99549.00;;;11.30
68012;BMP180;54794;48.348;7.878;2024-03-06T12:02:05;99549.00;;;11.30
68012;BMP180;54794;48.348;7.878;2024-03-06T12:04:35;99550.00;;;10.90
68012;BMP180;54794;48.348;7.878;2024-03-06T12:07:05;99543.00;;;10.90
68012;BMP180;54794;48.348;7.878;2024-03-06T12:09:33;99542.00;;;11.30
68012;BMP180;54794;48.348;7.878;2024-03-06T12:12:06;99534.00;;;10.80
68012;BMP180;54794;48.348;7.878;2024-03-06T12:14:35;99534.00;;;11.00
68012;BMP180;54794;48.348;7.878;2024-03-06T12:17:03;99535.00;;;11.10
68012;BMP180;54794;48.348;7.878;2024-03-06T12:19:35;99532.00;;;11.20
68012;BMP180;54794;48.348;7.878;2024-03-06T12:22:05;99536.00;;;10.90
68012;BMP180;54794;48.348;7.878;2024-03-06T12:24:35;99534.00;;;11.00
68012;BMP180;54794;48.348;7.878;2024-03-06T12:27:04;99535.00;;;11.00
68012;BMP180;54794;48.348;7.878;2024-03-06T12:29:32;99537.00;;;11.10
68012;BMP180;54794;48.348;7.878;2024-03-06T12:32:01;99533.00;;;11.00
68012;BMP180;54794;48.348;7.878;2024-03-06T12:34:29;99532.00;;;11.00
68012;BMP180;54794;48.348;7.878;2024-03-06T12:37:09;99526.00;;;11.10
68012;BMP180;54794;48.348;7.878;2024-03-06T12:39:39;99532.00;;;10.90
68012;BMP180;54794;48.348;7.878;2024-03-06T12:42:09;99535.00;;;10.80
68012;BMP180;54794;48.348;7.878;2024-03-06T12:44:37;99537.00;;;11.00
68012;BMP180;54794;48.348;7.878;2024-03-06T12:47:06;99534.00;;;11.00
68012;BMP180;54794;48.348;7.878;2024-03-06T12:49:33;99539.00;;;11.00
68012;BMP180;54794;48.348;7.878;2024-03-06T12:51:59;99545.00;;;10.80
68012;BMP180;54794;48.348;7.878;2024-03-06T12:54:31;99528.00;;;10.90
68012;BMP180;54794;48.348;7.878;2024-03-06T12:56:58;99521.00;;;10.80
68012;BMP180;54794;48.348;7.878;2024-03-06T12:59:24;99526.00;;;10.60
68012;BMP180;54794;48.348;7.878;2024-03-06T13:01:52;99522.00;;;10.70
68012;BMP180;54794;48.348;7.878;2024-03-06T13:04:19;99524.00;;;10.70
68012;BMP180;54794;48.348;7.878;2024-03-06T13:06:46;99529.00;;;10.70
68012;BMP180;54794;48.348;7.878;2024-03-06T13:09:12;99528.00;;;10.60
68012;BMP180;54794;48.348;7.878;2024-03-06T13:11:40;99524.00;;;10.80
68012;BMP180;54794;48.348;7.878;2024-03-06T13:14:08;99521.00;;;11.00
68012;BMP180;54794;48.348;7.878;2024-03-06T13:16:39;99518.00;;;11.00
68012;BMP180;54794;48.348;7.878;2024-03-06T13:19:06;99522.00;;;10.90
68012;BMP180;54794;48.348;7.878;2024-03-06T13:21:34;99519.00;;;10.90
68012;BMP180;54794;48.348;7.878;2024-03-06T13:24:04;99522.00;;;11.00
68012;BMP180;54794;48.348;7.878;2024-03-06T13:26:31;99515.00;;;11.10
68012;BMP180;54794;48.348;7.878;2024-03-06T13:28:58;99518.00;;;10.90
68012;BMP180;54794;48.348;7.878;2024-03-06T13:31:26;99506.00;;;11.00
68012;BMP180;54794;48.348;7.878;2024-03-06T13:33:53;99504.00;;;11.00
68012;BMP180;54794;48.348;7.878;2024-03-06T13:36:20;99510.00;;;11.00
68012;BMP180;54794;48.348;7.878;2024-03-06T13:38:48;99513.00;;;11.10
68012;BMP180;54794;48.348;7.878;2024-03-06T13:41:15;99506.00;;;10.70
68012;BMP180;54794;48.348;7.878;2024-03-06T13:43:42;99507.00;;;10.80
68012;BMP180;54794;48.348;7.878;2024-03-06T13:46:09;99510.00;;;10.80
68012;BMP180;54794;48.348;7.878;2024-03-06T13:48:37;99510.00;;;10.90
68012;BMP180;54794;48.348;7.878;2024-03-06T13:51:05;99515.00;;;11.00
68012;BMP180;54794;48.348;7.878;2024-03-06T13:53:32;99503.00;;;10.90
68012;BMP180;54794;48.348;7.878;2024-03-06T13:55:59;99512.00;;;11.10
68012;BMP180;54794;48.348;7.878;2024-03-06T13:58:26;99523.00;;;10.90
68012;BMP180;54794;48.348;7.878;2024-03-06T14:00:53;99524.00;;;10.80
68012;BMP180;54794;48.348;7.878;2024-03-06T14:03:19;99521.00;;;10.90
68012;BMP180;54794;48.348;7.878;2024-03-06T14:05:46;99522.00;;;11.10
68012;BMP180;54794;48.348;7.878;2024-03-06T14:08:13;99528.00;;;11.00
68012;BMP180;54794;48.348;7.878;2024-03-06T14:10:40;99520.00;;;11.00
68012;BMP180;54794;48.348;7.878;2024-03-06T14:13:07;99520.00;;;11.10
68012;BMP180;54794;48.348;7.878;2024-03-06T14:15:35;99520.00;;;10.70
68012;BMP180;54794;48.348;7.878;2024-03-06T14:18:04;99510.00;;;10.80
68012;BMP180;54794;48.348;7.878;2024-03-06T14:20:33;99516.00;;;10.80
68012;BMP180;54794;48.348;7.878;2024-03-06T14:22:59;99523.00;;;10.90
68012;BMP180;54794;48.348;7.878;2024-03-06T14:25:26;99518.00;;;10.90
68012;BMP180;54794;48.348;7.878;2024-03-06T14:27:53;99520.00;;;10.90
68012;BMP180;54794;48.348;7.878;2024-03-06T14:30:20;99523.00;;;10.90
68012;BMP180;54794;48.348;7.878;2024-03-06T14:32:47;99530.00;;;10.60
68012;BMP180;54794;48.348;7.878;2024-03-06T14:35:14;99532.00;;;10.50
68012;BMP180;54794;48.348;7.878;2024-03-06T14:37:42;99536.00;;;10.50
68012;BMP180;54794;48.348;7.878;2024-03-06T14:40:09;99529.00;;;10.70
68012;BMP180;54794;48.348;7.878;2024-03-06T14:42:36;99527.00;;;10.70
68012;BMP180;54794;48.348;7.878;2024-03-06T14:45:04;99528.00;;;11.00
68012;BMP180;54794;48.348;7.878;2024-03-06T14:47:32;99542.00;;;10.70
68012;BMP180;54794;48.348;7.878;2024-03-06T14:50:00;99530.00;;;10.80
68012;BMP180;54794;48.348;7.878;2024-03-06T14:52:27;99539.00;;;10.70
68012;BMP180;54794;48.348;7.878;2024-03-06T14:54:53;99537.00;;;10.70
68012;BMP180;54794;48.348;7.878;2024-03-06T14:57:20;99540.00;;;10.80
68012;BMP180;54794;48.348;7.878;2024-03-06T14:59:48;99533.00;;;10.80
68012;BMP180;54794;48.348;7.878;2024-03-06T15:02:16;99550.00;;;10.80